This is the latest recevied weather packets stored in our database for station/object HOWARD. If no packets are shown the sender has not sent any weather packets the latest 10 day(s).
| Time | Temp. | Humidity | Pressure | Rain* | Wind** | Luminosity | Snow |
|---|---|---|---|---|---|---|---|
| 1788053679 | 4.44° C | 76% | 1014 hPa | 0 mm | - | - | - |
| 1788053144 | 3.89° C | 75% | 1014 hPa | 0 mm | - | - | - |
| 1788053079 | 3.89° C | 75% | 1014 hPa | 0 mm | - | - | - |
| 1788052479 | 4.44° C | 74% | 1013.9 hPa | 0 mm | - | - | - |
| 1788051879 | 5° C | 74% | 1013.8 hPa | 0 mm | - | - | - |
| 1788051294 | 5° C | 75% | 1013.7 hPa | 0 mm | - | - | - |
| 1788050679 | 5° C | 74% | 1013.7 hPa | 0 mm | - | - | - |
| 1788050079 | 5° C | 75% | 1013.6 hPa | 0 mm | - | - | - |
| 1788049479 | 5° C | 73% | 1013.6 hPa | 0 mm | - | - | - |
| 1788048941 | 5° C | 74% | 1013.4 hPa | 0 mm | - | - | - |
| 1788048879 | 5° C | 74% | 1013.4 hPa | 0 mm | - | - | - |
| 1788048279 | 5.56° C | 72% | 1013.2 hPa | 0 mm | - | - | - |
| 1788047680 | 5.56° C | 73% | 1013.3 hPa | 0 mm | - | - | - |
| 1788047079 | 6.11° C | 71% | 1013.3 hPa | 0 mm | - | - | - |
| 1788046480 | 6.67° C | 69% | 1013.4 hPa | 0 mm | - | - | - |
| 1788045879 | 6.67° C | 71% | 1013.3 hPa | 0 mm | - | - | - |
| 1788045279 | 6.67° C | 70% | 1014 hPa | 0 mm | - | - | - |
| 1788044679 | 7.22° C | 67% | 1014 hPa | 0 mm | - | - | - |
| 1788044079 | 8.89° C | 64% | 1013.9 hPa | 0 mm | - | - | - |
| 1788043479 | 8.89° C | 66% | 1014 hPa | 0 mm | - | - | - |
| 1788042879 | 8.89° C | 67% | 1013.9 hPa | 0 mm | - | - | - |
| 1788042279 | 8.89° C | 68% | 1013.7 hPa | 0 mm | - | - | - |
| 1788041679 | 9.44° C | 69% | 1013.8 hPa | 0 mm | - | - | - |
| 1788041079 | 8.89° C | 70% | 1013.8 hPa | 0 mm | - | - | - |
| 1788040479 | 8.89° C | 70% | 1013.6 hPa | 0 mm | - | - | - |
* Rain latest hour (hover to see other rain measurements)
** Current wind speed in m/s (hover to see current wind gust speed)